Latest Weather Observations for Goulburn Airport

IDN60901

Issued at 10:11 pm EST Friday 3 July 2015 (issued every 10 minutes, with the page automatically refreshed every 10 minutes)

About weather observations | Map of Canberra area stations | Latest observations for Canberra area | Other Formats
Station Details ID: 070330 Name: GOULBURN AIRPORT AWS Lat: -34.81 Lon: 149.73 Height: 640.0 m
Data from the previous 72 hours. | See also: Recent months at Goulburn Airport
Date/Time
EST
Tmp

°C
App
Tmp
°C
Dew
Point
°C
Rel
Hum
%
Delta-T

°C
Wind Press
QNH
hPa
Press
MSL
hPa
Rain
since
9 am
mm
Dir
 
Spd
km/h
Gust
km/h
Spd
kts
Gust
kts
03/10:00pm -2.3 -6.9 -4.5 85 0.6 NW 11 13 6 7 1024.6 1025.8 0.0
03/09:30pm -1.6 -5.2 -3.8 85 0.7 N 6 7 3 4 1024.9 1026.0 0.0
03/09:00pm -1.3 -5.8 -3.0 88 0.5 N 11 13 6 7 1024.9 1026.0 0.0
03/08:30pm -1.7 -6.3 -4.0 84 0.7 NNE 11 13 6 7 1024.9 1026.0 0.0
03/08:00pm -1.1 -4.7 -3.4 84 0.7 ENE 6 9 3 5 1024.9 1026.0 0.0
03/07:30pm -0.7 -3.0 -2.6 87 0.6 CALM 0 0 0 0 1024.9 1026.0 0.0
03/07:00pm -0.1 -2.4 -2.3 85 0.8 CALM 0 0 0 0 1024.9 1026.0 0.0
03/06:30pm 0.7 -1.5 -1.4 86 0.8 CALM 0 0 0 0 1025.0 1026.1 0.0
03/05:30pm 2.3 -3.1 -1.5 76 1.4 W 17 17 9 9 1024.5 1025.7 0.0
03/05:00pm 4.0 -0.7 -1.8 66 2.2 W 13 17 7 9 1024.1 1025.3 0.0
03/04:30pm 7.4 3.6 -1.0 55 3.3 W 9 11 5 6 1024.1 1025.3 0.0
03/04:00pm 8.6 3.9 -1.8 48 4.1 W 13 15 7 8 1024.3 1025.5 0.0
03/03:30pm 9.0 4.7 -1.4 48 4.2 NW 11 15 6 8 1024.3 1025.5 0.0
03/03:00pm 8.7 4.0 -2.0 47 4.2 W 13 19 7 10 1024.1 1025.3 0.0
03/02:30pm 8.8 4.5 -1.6 48 4.1 WNW 11 13 6 7 1024.1 1025.3 0.0
03/02:00pm 8.8 5.7 -2.5 45 4.4 NNW 4 9 2 5 1024.2 1025.4 0.0
03/01:30pm 8.9 5.6 -0.9 50 3.9 WSW 6 9 3 5 1024.5 1025.7 0.0
03/01:00pm 8.3 4.9 -1.8 49 4.0 NE 6 9 3 5 1025.0 1026.1 0.0
03/12:30pm 7.0 3.6 -2.4 51 3.6 SSE 6 9 3 5 1025.8 1027.0 0.0
03/12:00pm 7.1 3.5 -2.1 52 3.5 N 7 9 4 5 1026.0 1027.2 0.0
03/11:30am 6.5 3.6 -1.4 57 3.1 NNE 4 7 2 4 1026.3 1027.6 0.0
03/11:00am 5.6 2.4 -0.2 66 2.3 NNE 6 9 3 5 1026.7 1027.9 0.0
03/10:30am 3.8 0.3 -1.0 71 1.8 N 7 9 4 5 1027.0 1028.2 0.0
03/10:00am 2.4 -1.4 -1.0 78 1.3 N 9 11 5 6 1027.2 1028.4 0.0
03/09:30am 0.6 -3.8 -2.1 82 1.0 N 11 15 6 8 1027.1 1028.3 0.0
03/09:00am -1.6 -5.3 -2.6 93 0.3 N 7 9 4 5 1027.1 1028.3 0.4
03/08:00am -5.8 -8.6 -6.7 93 0.0 CALM 0 0 0 0 1026.6 1027.8 0.2
03/07:30am -6.9 -10.6 -8.0 92 0.1 SE 4 9 2 5 1026.1 1027.3 0.2
03/07:00am -7.4 -10.4 -8.9 89 0.1 CALM 0 0 0 0 1025.9 1027.1 0.2
03/06:30am -6.6 -9.5 -7.7 92 0.1 CALM 0 0 0 0 1025.5 1026.7 0.2
03/06:00am -6.8 -9.7 -7.9 92 0.1 CALM 0 0 0 0 1025.2 1026.4 0.2
03/05:30am -6.6 -9.4 -7.4 94 0.0 CALM 0 0 0 0 1024.9 1026.0 0.2
03/05:00am -7.5 -10.5 -8.8 90 0.1 CALM 0 0 0 0 1024.6 1025.8 0.2
03/04:30am -7.1 -10.0 -8.3 91 0.1 CALM 0 0 0 0 1024.5 1025.7 0.2
03/04:00am -6.5 -9.3 -7.4 93 0.0 CALM 0 0 0 0 1024.6 1025.8 0.2
03/03:30am -7.1 -10.0 -8.5 90 0.1 CALM 0 0 0 0 1024.5 1025.7 0.2
03/03:00am -6.1 -9.7 -7.0 93 0.0 NNW 4 7 2 4 1024.5 1025.7 0.2
03/02:30am -6.2 -9.0 -7.1 93 0.0 CALM 0 0 0 0 1024.5 1025.7 0.2
03/02:00am -6.5 -9.4 -7.9 90 0.2 CALM 0 0 0 0 1024.3 1025.5 0.2
03/01:30am -5.3 -8.0 -6.2 93 0.1 CALM 0 0 0 0 1024.4 1025.6 0.2
03/01:00am -5.5 -8.7 -6.7 91 0.1 ESE 2 6 1 3 1024.3 1025.5 0.2
03/12:30am -4.0 -7.7 -4.8 94 0.1 SW 6 9 3 5 1024.6 1025.8 0.2
03/12:00am -5.1 -9.9 -6.2 92 0.1 WSW 11 13 6 7 1024.7 1025.9 0.2
 
Date/Time
EST
Tmp

°C
App
Tmp
°C
Dew
Point
°C
Rel
Hum
%
Delta-T

°C
Wind Press
QNH
hPa
Press
MSL
hPa
Rain
since
9 am
mm
Dir
 
Spd
km/h
Gust
km/h
Spd
kts
Gust
kts
02/11:30pm -4.3 -7.0 -5.5 91 0.2 CALM 0 4 0 2 1024.9 1026.0 0.2
02/11:00pm -2.8 -5.3 -3.8 93 0.2 CALM 0 0 0 0 1024.9 1026.0 0.2
02/10:30pm -2.4 -5.6 -3.7 91 0.3 ENE 4 7 2 4 1024.7 1025.9 0.2
02/10:00pm -1.5 -4.7 -3.4 87 0.6 W 4 9 2 5 1024.4 1025.6 0.2
02/09:30pm -0.4 -3.9 -1.5 92 0.4 NW 7 9 4 5 1024.2 1025.4 0.2
02/09:00pm -0.1 -4.7 -1.2 92 0.4 W 13 17 7 9 1023.7 1024.9 0.2
02/08:30pm 0.9 -3.9 -0.1 93 0.4 W 15 19 8 10 1023.6 1024.7 0.2
02/08:00pm 1.7 -2.6 0.7 93 0.4 WNW 13 19 7 10 1023.0 1024.2 0.2
02/07:30pm 0.9 -2.4 -1.2 86 0.8 W 6 15 3 8 1022.8 1024.0 0.2
02/07:00pm 2.2 -1.9 0.1 86 0.8 WSW 11 19 6 10 1022.1 1023.2 0.2
02/06:30pm 2.5 -1.9 0.6 87 0.7 W 13 17 7 9 1021.8 1022.9 0.2
02/06:00pm 4.1 -0.9 1.6 84 1.0 W 17 24 9 13 1020.9 1022.0 0.2
02/05:30pm 5.0 -1.9 2.4 83 1.1 W 28 39 15 21 1020.3 1021.4 0.2
02/05:00pm 5.3 -1.3 2.3 81 1.3 W 26 39 14 21 1020.0 1021.1 0.2
02/04:30pm 5.5 -2.2 2.2 79 1.4 W 32 39 17 21 1019.3 1020.4 0.2
02/04:00pm 6.1 -3.7 2.4 77 1.6 W 43 57 23 31 1018.7 1019.8 0.2
02/03:41pm 6.2 -3.6 2.5 77 1.6 WNW 43 61 23 33 1017.8 1018.9 0.2
02/03:35pm 6.2 -3.7 2.8 79 1.5 WNW 44 61 24 33 1017.6 1018.7 0.2
02/03:30pm 6.3 -3.6 2.9 79 1.5 W 44 59 24 32 1017.9 1019.0 0.2
02/03:10pm 6.1 -2.7 3.6 84 1.1 W 39 61 21 33 1018.4 1019.4 0.2
02/03:00pm 5.6 -2.1 3.6 87 0.9 W 33 48 18 26 1018.3 1019.3 0.2
02/02:30pm 5.7 -2.6 4.0 89 0.8 WNW 37 48 20 26 1017.8 1018.9 0.2
02/02:00pm 5.4 -2.1 4.2 92 0.5 WNW 33 44 18 24 1018.0 1019.1 0.2
02/01:30pm 5.5 -1.9 4.2 91 0.6 WNW 32 46 17 25 1018.3 1019.3 0.2
02/01:09pm 5.9 -1.0 4.4 90 0.7 W 30 41 16 22 1018.4 1019.4 0.0
02/01:00pm 5.8 -1.3 3.6 86 1.0 WNW 30 46 16 25 1018.5 1019.6 0.0
02/12:55pm 6.0 -0.7 3.5 84 1.1 WNW 28 46 15 25 1018.5 1019.6 0.0
02/12:30pm 6.8 0.3 2.5 74 1.8 WNW 26 35 14 19 1018.6 1019.7 0.0
02/12:23pm 7.2 -0.6 2.9 74 1.9 WNW 33 46 18 25 1018.7 1019.8 0.0
02/12:00pm 6.7 0.3 3.0 77 1.6 WNW 26 35 14 19 1019.3 1020.4 0.0
02/11:30am 6.1 -2.2 2.0 75 1.7 WNW 35 44 19 24 1020.2 1021.3 0.0
02/11:00am 5.3 -2.1 2.0 79 1.4 WNW 30 39 16 21 1020.7 1021.8 0.0
02/10:30am 5.2 -1.4 1.9 79 1.4 WNW 26 32 14 17 1021.2 1022.4 0.0
02/10:09am 4.8 -1.9 1.6 80 1.3 WNW 26 35 14 19 1021.9 1023.0 0.0
02/10:03am 5.4 -2.9 1.9 78 1.5 WNW 35 54 19 29 1021.8 1022.9 0.0
02/10:00am 6.1 -3.2 2.7 79 1.5 WNW 41 54 22 29 1021.8 1022.9 0.0
02/09:46am 4.8 -3.2 1.8 81 1.2 WNW 33 52 18 28 1021.2 1022.4 0.0
02/09:30am 5.0 -4.8 2.0 81 1.3 WNW 43 57 23 31 1020.9 1022.0 0.0
02/09:00am 4.3 -4.4 1.8 84 1.0 WNW 37 48 20 26 1020.7 1021.8 0.0
02/08:30am 4.0 -3.4 1.9 86 0.9 WNW 30 39 16 21 1021.0 1022.1 0.0
02/08:04am 3.7 -3.3 1.7 87 0.8 WNW 28 39 15 21 1020.8 1021.9 0.0
02/08:00am 3.6 -2.7 1.6 87 0.8 WNW 24 35 13 19 1020.8 1021.9 0.0
02/07:30am 3.1 -1.5 1.3 88 0.7 WNW 15 22 8 12 1021.1 1022.3 0.0
02/07:00am 3.4 -0.8 1.8 89 0.7 NW 13 20 7 11 1020.9 1022.0 0.0
02/06:30am 3.2 -1.0 1.7 90 0.6 NW 13 17 7 9 1020.9 1022.0 0.0
02/06:00am 2.7 -2.0 1.1 89 0.6 W 15 22 8 12 1020.8 1021.9 0.0
02/05:30am 2.7 -1.3 0.6 86 0.8 WNW 11 19 6 10 1020.7 1021.8 0.0
02/05:12am 2.1 -1.6 -0.2 85 0.9 NW 9 13 5 7 1020.6 1021.7 0.0
02/05:00am 2.4 -1.7 0.1 85 0.9 WNW 11 19 6 10 1020.8 1021.9 0.0
02/04:30am 2.0 -1.7 -0.1 86 0.8 W 9 13 5 7 1021.1 1022.3 0.0
02/04:00am 2.0 -1.7 -0.1 86 0.8 NW 9 15 5 8 1021.0 1022.1 0.0
02/03:58am 1.9 -1.8 -0.2 86 0.8 WNW 9 15 5 8 1021.0 1022.1 0.0
02/03:30am 2.2 -0.9 -0.1 85 0.9 NE 6 15 3 8 1021.1 1022.3 0.0
02/03:00am 1.6 -1.6 -0.2 88 0.7 ENE 6 9 3 5 1021.3 1022.5 0.0
02/02:56am 1.6 -1.6 -0.2 88 0.7 E 6 9 3 5 1021.3 1022.5 0.0
02/02:30am 1.4 -3.1 -0.4 88 0.7 WNW 13 20 7 11 1021.6 1022.7 0.0
02/02:00am 1.5 -4.1 -0.1 89 0.6 WNW 19 22 10 12 1021.6 1022.7 0.0
02/01:30am 1.2 -2.9 -0.4 89 0.6 W 11 19 6 10 1021.9 1023.0 0.0
02/01:23am 1.1 -3.5 -0.7 88 0.7 WNW 13 19 7 10 1021.9 1023.0 0.0
02/01:02am 1.0 -2.4 -0.8 88 0.7 NNW 7 11 4 6 1021.9 1023.0 0.0
02/01:00am 1.2 -2.2 -0.4 89 0.6 NNW 7 11 4 6 1021.9 1023.0 0.0
02/12:30am 1.2 -2.0 -0.6 88 0.7 N 6 9 3 5 1022.4 1023.6 0.0
02/12:06am 1.8 -3.4 0.0 88 0.7 NW 17 26 9 14 1022.3 1023.4 0.0
02/12:00am 2.0 -3.8 0.1 87 0.7 WNW 20 28 11 15 1022.3 1023.4 0.0
 
Date/Time
EST
Tmp

°C
App
Tmp
°C
Dew
Point
°C
Rel
Hum
%
Delta-T

°C
Wind Press
QNH
hPa
Press
MSL
hPa
Rain
since
9 am
mm
Dir
 
Spd
km/h
Gust
km/h
Spd
kts
Gust
kts
01/11:48pm 2.4 -3.1 0.3 86 0.8 NW 19 35 10 19 1022.5 1023.7 0.0
01/11:30pm 2.4 -4.1 0.3 86 0.8 WNW 24 33 13 18 1022.5 1023.7 0.0
01/11:00pm 2.8 -5.3 0.7 86 0.8 WNW 33 43 18 23 1022.1 1023.2 0.0
01/10:30pm 3.1 -4.2 0.3 82 1.1 WNW 28 39 15 21 1022.7 1023.9 0.0
01/10:25pm 3.1 -3.4 0.3 82 1.1 NW 24 35 13 19 1022.8 1024.0 0.0
01/10:00pm 3.6 -1.2 0.5 80 1.2 NW 15 26 8 14 1023.4 1024.5 0.0
01/09:30pm 4.1 -0.6 1.0 80 1.3 WNW 15 22 8 12 1023.5 1024.6 0.0
01/09:22pm 4.2 -0.8 1.2 81 1.2 WNW 17 22 9 12 1023.5 1024.6 0.0
01/09:06pm 4.1 -1.5 1.0 80 1.3 WNW 20 30 11 16 1023.4 1024.5 0.0
01/09:00pm 4.1 -1.3 1.1 81 1.2 WNW 19 32 10 17 1023.4 1024.5 0.0
01/08:30pm 3.6 -2.0 1.3 85 0.9 WNW 20 32 11 17 1023.6 1024.7 0.0
01/08:00pm 3.1 -1.2 0.8 85 0.9 NW 13 22 7 12 1023.6 1024.7 0.0
01/07:56pm 3.2 -1.5 0.9 85 0.9 WNW 15 22 8 12 1023.8 1025.0 0.0
01/07:30pm 2.7 -2.5 0.1 83 1.0 WNW 17 24 9 13 1023.8 1025.0 0.0
01/07:00pm 2.6 -1.5 0.0 83 1.0 NW 11 15 6 8 1023.7 1024.9 0.0
01/06:30pm 3.6 -2.0 1.0 83 1.0 NW 20 24 11 13 1023.4 1024.5 0.0
01/06:00pm 4.2 -1.2 1.2 81 1.2 WNW 19 22 10 12 1023.3 1024.4 0.0
01/05:30pm 4.6 0.7 1.3 79 1.3 NW 11 15 6 8 1023.3 1024.4 0.0
01/05:00pm 5.3 0.4 1.8 78 1.5 WNW 17 20 9 11 1023.1 1024.3 0.0
01/04:30pm 6.8 1.9 1.7 70 2.2 WNW 17 22 9 12 1023.0 1024.2 0.0
01/04:00pm 7.8 2.5 2.1 67 2.4 W 19 24 10 13 1023.0 1024.2 0.0
01/03:30pm 8.3 3.4 2.1 65 2.7 W 17 20 9 11 1022.9 1024.1 0.0
01/03:00pm 8.8 3.9 2.2 63 2.9 WNW 17 20 9 11 1023.1 1024.3 0.0
01/02:30pm 9.2 3.9 2.8 64 2.8 WNW 20 26 11 14 1023.4 1024.5 0.0
01/02:00pm 9.7 4.6 3.2 64 2.9 NW 19 24 10 13 1023.6 1024.7 0.0
01/01:30pm 8.5 4.3 1.9 63 2.8 W 13 19 7 10 1024.0 1025.2 0.0
01/01:00pm 9.2 4.2 3.8 69 2.4 WNW 19 24 10 13 1024.4 1025.6 0.0
01/12:30pm 8.4 4.8 2.8 68 2.5 WNW 11 20 6 11 1024.9 1026.0 0.0
01/12:00pm 7.9 3.9 2.6 69 2.3 WNW 13 19 7 10 1025.4 1026.6 0.0
01/11:30am 7.9 4.3 3.0 71 2.2 W 11 17 6 9 1025.8 1027.0 0.0
01/11:00am 6.8 3.8 2.3 73 1.9 WNW 7 11 4 6 1026.2 1027.4 0.0
01/10:30am 6.4 3.4 2.1 74 1.8 WNW 7 9 4 5 1026.6 1027.8 0.0
01/10:00am 5.5 1.5 2.7 82 1.2 WNW 13 15 7 8 1026.8 1028.0 0.0
01/09:30am 3.8 0.0 1.8 87 0.8 NW 11 15 6 8 1026.8 1027.7 0.0
01/09:00am 3.4 -0.4 1.6 88 0.7 W 11 15 6 8 1026.7 1027.6 0.8
01/08:39am 2.6 -0.2 2.3 98 0.1 N 6 7 3 4 1026.4 1027.4 0.8
01/08:30am 1.8 -1.3 1.5 98 0.1 N 7 9 4 5 1026.6 1027.5 0.8
01/08:00am 0.6 -2.1 0.2 97 0.2 NNE 4 7 2 4 1026.6 1027.5 0.8
01/07:30am 0.1 -3.1 -0.3 97 0.2 NNE 6 9 3 5 1026.3 1027.3 0.8
01/07:00am -0.2 -3.4 -0.8 96 0.2 NNE 6 9 3 5 1026.2 1027.2 0.8
01/06:30am -1.2 -3.4 -1.9 95 0.2 CALM 0 0 0 0 1025.7 1026.6 0.8
01/06:13am -1.3 -3.6 -2.0 95 0.2 CALM 0 6 0 3 1025.6 1026.5 0.8
01/06:00am -2.0 -5.2 -3.1 92 0.3 WNW 4 9 2 5 1025.4 1026.3 0.8
01/05:30am -0.7 -5.0 -1.5 94 0.3 NW 11 17 6 9 1025.3 1026.2 0.8
01/05:00am -0.9 -5.2 -1.6 95 0.2 NW 11 17 6 9 1025.3 1026.2 0.8
01/04:30am 0.0 -5.3 -0.6 96 0.2 NW 17 20 9 11 1025.4 1026.3 0.8
01/04:00am -0.2 -4.4 -0.9 95 0.2 WNW 11 13 6 7 1025.5 1026.4 0.8
01/03:30am -0.5 -4.4 -1.6 92 0.4 WSW 9 15 5 8 1025.7 1026.6 0.8
01/03:00am -0.7 -4.6 -1.7 93 0.3 WNW 9 9 5 5 1025.7 1026.6 0.8
01/02:30am 0.0 -4.6 -0.8 94 0.3 NW 13 15 7 8 1025.8 1026.7 0.8
01/02:00am 0.2 -4.0 -0.6 94 0.3 WNW 11 13 6 7 1026.1 1027.1 0.8
01/01:30am 1.0 -2.4 -0.3 91 0.5 W 7 13 4 7 1026.3 1027.3 0.8
01/01:00am 1.9 -2.4 0.7 92 0.5 WNW 13 17 7 9 1026.3 1027.3 0.8
01/12:30am 1.9 -2.9 0.4 90 0.6 WNW 15 19 8 10 1026.4 1027.4 0.8
01/12:00am 2.2 -1.4 0.6 89 0.6 WNW 9 13 5 7 1026.4 1027.4 0.8
 
Date/Time
EST
Tmp

°C
App
Tmp
°C
Dew
Point
°C
Rel
Hum
%
Delta-T

°C
Wind Press
QNH
hPa
Press
MSL
hPa
Rain
since
9 am
mm
Dir
 
Spd
km/h
Gust
km/h
Spd
kts
Gust
kts
30/11:30pm 2.7 -0.3 0.8 87 0.8 W 6 11 3 6 1026.7 1027.6 0.8
30/11:00pm 3.2 -1.1 1.1 86 0.8 WNW 13 17 7 9 1026.6 1027.5 0.8
30/10:30pm 3.9 -0.3 1.9 87 0.8 WNW 13 19 7 10 1026.9 1027.8 0.8

Latest Capital City Observations: Canberra | Sydney | Melbourne | Brisbane | Adelaide | Perth | Hobart | Darwin

Other Formats:

Comma delimited format used in spreadsheet applications
http://www.bom.gov.au/fwo/IDN60903/IDN60903.95716.axf

JavaScript Object Notation format (JSON) in row-major order
http://www.bom.gov.au/fwo/IDN60903/IDN60903.95716.json